Time;durP1;ratioP1;P1;durP2;ratioP2;P2;SDS_P1;SDS_P2;PMS_P1;PMS_P2;Temp;Humidity;BMP_temperature;BMP_pressure;BME280_temperature;BME280_humidity;BME280_pressure;Samples;Min_cycle;Max_cycle;Signal;HPM_P1;HPM_P2
2024/01/09 00:00:38;;;;;;;53.10;21.33;;;;;;;-15.29;66.63;102362.58;1676553;85;26407;-48
2024/01/09 00:03:06;;;;;;;67.17;22.93;;;;;;;-15.31;66.11;102352.75;1676747;85;25479;-48
2024/01/09 00:05:33;;;;;;;66.35;22.60;;;;;;;-15.31;66.01;102358.77;1676570;85;27337;-48
2024/01/09 00:07:59;;;;;;;72.40;23.40;;;;;;;-15.28;65.82;102360.37;1676469;85;25506;-48
2024/01/09 00:10:26;;;;;;;62.50;21.95;;;;;;;-15.29;65.97;102348.30;1676711;85;25417;-51
2024/01/09 00:12:53;;;;;;;74.30;24.75;;;;;;;-15.30;65.65;102351.37;1676788;85;26605;-50
2024/01/09 00:15:19;;;;;;;67.15;24.52;;;;;;;-15.27;65.66;102347.30;1676802;85;25409;-49
2024/01/09 00:17:46;;;;;;;63.40;22.58;;;;;;;-15.30;65.86;102347.47;1676835;85;27180;-48
2024/01/09 00:20:12;;;;;;;65.10;23.77;;;;;;;-15.29;65.93;102345.23;1676723;85;25546;-49
2024/01/09 00:22:39;;;;;;;74.97;27.40;;;;;;;-15.26;66.11;102348.95;1676822;85;25474;-49
2024/01/09 00:25:08;;;;;;;66.37;22.32;;;;;;;-15.25;65.70;102348.05;1676784;85;25902;-48
2024/01/09 00:27:35;;;;;;;74.65;23.92;;;;;;;-15.25;65.58;102343.32;1676973;85;25877;-49
2024/01/09 00:30:02;;;;;;;72.78;24.32;;;;;;;-15.31;65.71;102338.00;1676761;85;27339;-49
2024/01/09 00:32:29;;;;;;;66.70;24.90;;;;;;;-15.29;65.72;102347.83;1676787;85;25470;-48
2024/01/09 00:34:56;;;;;;;64.85;23.85;;;;;;;-15.25;65.76;102337.66;1676849;85;25472;-48
2024/01/09 00:37:22;;;;;;;70.08;22.70;;;;;;;-15.21;65.74;102345.27;1676859;85;25989;-48
2024/01/09 00:39:51;;;;;;;58.83;21.45;;;;;;;-15.23;65.87;102346.66;1676868;85;25381;-48
2024/01/09 00:42:18;;;;;;;56.88;22.13;;;;;;;-15.25;65.53;102340.73;1676979;85;27322;-52
2024/01/09 00:44:45;;;;;;;65.22;23.22;;;;;;;-15.21;65.42;102340.91;1676738;85;25427;-51
2024/01/09 00:47:11;;;;;;;62.65;23.12;;;;;;;-15.20;65.44;102341.29;1676877;85;25393;-47
2024/01/09 00:49:38;;;;;;;70.12;23.35;;;;;;;-15.22;64.92;102343.12;1676830;85;26493;-47
2024/01/09 00:52:04;;;;;;;63.73;24.40;;;;;;;-15.20;64.94;102339.99;1676855;85;25431;-48
2024/01/09 00:54:31;;;;;;;63.50;24.70;;;;;;;-15.22;65.14;102343.12;1676824;85;27334;-49
2024/01/09 00:56:57;;;;;;;66.12;24.30;;;;;;;-15.28;65.28;102344.80;1676718;85;25499;-47
2024/01/09 00:59:24;;;;;;;62.20;22.93;;;;;;;-15.25;65.37;102335.53;1676840;85;25462;-47
2024/01/09 01:01:51;;;;;;;63.15;24.75;;;;;;;-15.31;65.18;102347.09;1676759;85;26599;-49
2024/01/09 01:04:18;;;;;;;69.87;24.87;;;;;;;-15.34;65.42;102349.86;1676838;85;25508;-48
2024/01/09 01:06:45;;;;;;;72.97;25.40;;;;;;;-15.32;65.38;102355.82;1676156;85;27375;-49
2024/01/09 01:09:12;;;;;;;63.30;23.25;;;;;;;-15.29;65.05;102358.69;1676749;85;25463;-50
2024/01/09 01:11:39;;;;;;;82.53;29.15;;;;;;;-15.26;64.97;102353.32;1676864;85;25441;-49
2024/01/09 01:14:05;;;;;;;77.97;25.20;;;;;;;-15.25;64.82;102349.81;1676825;85;26047;-51
2024/01/09 01:16:32;;;;;;;74.47;25.80;;;;;;;-15.26;65.01;102347.66;1676839;85;25486;-50
2024/01/09 01:18:58;;;;;;;76.12;24.92;;;;;;;-15.23;65.02;102348.78;1676836;85;27409;-48
2024/01/09 01:21:25;;;;;;;84.42;26.05;;;;;;;-15.25;64.88;102357.60;1676677;85;25437;-48
2024/01/09 01:23:52;;;;;;;77.05;26.48;;;;;;;-15.33;64.79;102355.91;1676742;85;25389;-49
2024/01/09 01:26:18;;;;;;;66.55;23.55;;;;;;;-15.34;64.94;102362.02;1676692;85;25923;-50
2024/01/09 01:28:45;;;;;;;69.42;21.95;;;;;;;-15.37;65.12;102367.38;1676716;85;25394;-49
2024/01/09 01:31:12;;;;;;;68.75;25.37;;;;;;;-15.44;65.16;102354.77;1676896;85;27321;-49
2024/01/09 01:33:38;;;;;;;65.65;23.85;;;;;;;-15.48;65.24;102359.74;1677101;85;25461;-48
2024/01/09 01:36:05;;;;;;;82.42;27.95;;;;;;;-15.47;64.90;102361.42;1677168;85;25464;-53
2024/01/09 01:38:32;;;;;;;75.30;29.32;;;;;;;-15.46;64.63;102362.25;1677154;85;25966;-49
2024/01/09 01:40:59;;;;;;;87.60;26.70;;;;;;;-15.49;64.88;102359.39;1677159;85;25498;-48
2024/01/09 01:43:25;;;;;;;67.75;26.90;;;;;;;-15.49;65.23;102360.69;1676978;85;28139;-48
2024/01/09 01:45:52;;;;;;;89.05;31.48;;;;;;;-15.54;65.26;102360.11;1676873;85;25409;-48
2024/01/09 01:48:19;;;;;;;86.25;29.25;;;;;;;-15.60;65.18;102362.58;1676960;85;25504;-48
2024/01/09 01:50:46;;;;;;;87.55;29.15;;;;;;;-15.60;65.47;102372.95;1676924;85;25907;-49
2024/01/09 01:53:13;;;;;;;80.90;27.95;;;;;;;-15.62;65.48;102371.38;1684118;84;25499;-49
2024/01/09 01:55:39;;;;;;;74.45;27.40;;;;;;;-15.63;65.59;102377.48;1676948;84;27984;-48
2024/01/09 01:58:06;;;;;;;74.12;25.82;;;;;;;-15.60;65.58;102382.03;1676852;85;25837;-49
2024/01/09 02:00:33;;;;;;;81.28;28.45;;;;;;;-15.55;65.24;102375.30;1676969;85;25423;-49
2024/01/09 02:03:00;;;;;;;77.03;27.07;;;;;;;-15.53;64.95;102379.11;1676917;85;26019;-49
2024/01/09 02:05:28;;;;;;;85.20;27.30;;;;;;;-15.53;64.88;102375.21;1676982;85;25436;-48
2024/01/09 02:07:57;;;;;;;85.12;28.87;;;;;;;-15.50;64.94;102381.06;1684182;84;27314;-51
2024/01/09 02:10:24;;;;;;;87.33;30.12;;;;;;;-15.51;65.07;102374.66;1618238;88;25487;-49
2024/01/09 02:12:51;;;;;;;75.00;27.70;;;;;;;-15.52;64.87;102380.79;1646106;87;25425;-49
2024/01/09 02:15:17;;;;;;;76.95;27.77;;;;;;;-15.50;65.07;102377.17;1677383;84;25909;-50
2024/01/09 02:17:44;;;;;;;83.20;28.77;;;;;;;-15.49;64.96;102377.99;1677290;84;25410;-50
2024/01/09 02:20:11;;;;;;;87.72;27.58;;;;;;;-15.54;65.00;102385.20;1677044;85;28067;-49
2024/01/09 02:22:38;;;;;;;79.82;27.07;;;;;;;-15.57;65.11;102384.11;1676790;85;25122;-49
2024/01/09 02:25:05;;;;;;;82.60;28.95;;;;;;;-15.57;65.16;102384.94;1676907;85;25418;-49
2024/01/09 02:27:51;;;;;;;69.80;26.97;;;;;;;-15.61;65.05;102392.06;1676843;85;26095;-50
2024/01/09 02:30:18;;;;;;;71.90;27.93;;;;;;;-15.63;65.22;102385.27;1684040;85;25491;-48
2024/01/09 02:32:44;;;;;;;70.57;25.10;;;;;;;-15.58;65.11;102388.91;1677232;84;27889;-50
2024/01/09 02:35:12;;;;;;;75.78;27.55;;;;;;;-15.59;65.04;102384.19;1683798;84;25476;-50
2024/01/09 02:37:38;;;;;;;72.70;26.75;;;;;;;-15.61;65.07;102388.61;1677042;84;25512;-49
2024/01/09 02:40:08;;;;;;;76.62;26.90;;;;;;;-15.58;65.08;102376.77;1684017;85;26007;-49
2024/01/09 02:42:34;;;;;;;72.25;27.48;;;;;;;-15.62;64.70;102372.69;1684143;84;25451;-49
2024/01/09 02:45:01;;;;;;;71.70;26.12;;;;;;;-15.62;64.75;102372.69;1677030;84;27368;-48
2024/01/09 02:47:28;;;;;;;68.35;28.23;;;;;;;-15.60;64.88;102372.13;1676759;85;25463;-51
2024/01/09 02:49:54;;;;;;;84.55;31.73;;;;;;;-15.58;65.07;102370.75;1676856;85;25487;-49
2024/01/09 02:52:21;;;;;;;99.90;34.05;;;;;;;-15.61;65.11;102368.70;1676808;85;26455;-48
2024/01/09 02:54:48;;;;;;;90.55;32.40;;;;;;;-15.61;65.09;102365.25;1676887;85;25389;-49
2024/01/09 02:57:15;;;;;;;104.47;36.60;;;;;;;-15.63;65.12;102380.08;1676812;85;28001;-48
2024/01/09 02:59:42;;;;;;;104.50;36.08;;;;;;;-15.68;65.20;102371.72;1684053;85;25472;-48
2024/01/09 03:02:08;;;;;;;90.70;33.42;;;;;;;-15.72;65.36;102371.06;1677008;84;25403;-49
2024/01/09 03:04:35;;;;;;;100.72;36.03;;;;;;;-15.74;65.49;102376.80;1676801;85;26579;-52
2024/01/09 03:07:02;;;;;;;95.15;35.90;;;;;;;-15.70;65.80;102380.88;1676924;85;25456;-48
2024/01/09 03:09:29;;;;;;;75.35;32.20;;;;;;;-15.68;66.20;102381.66;1684156;85;27593;-47
2024/01/09 03:11:56;;;;;;;74.37;26.85;;;;;;;-15.68;66.49;102377.77;1677524;84;25475;-48
2024/01/09 03:14:22;;;;;;;79.65;29.12;;;;;;;-15.66;66.62;102380.25;1676841;85;25497;-49
2024/01/09 03:16:49;;;;;;;69.45;28.67;;;;;;;-15.68;66.76;102383.39;1676798;85;25575;-50
2024/01/09 03:19:15;;;;;;;79.25;28.70;;;;;;;-15.66;66.83;102381.55;1676867;85;25456;-51
2024/01/09 03:21:42;;;;;;;75.35;27.30;;;;;;;-15.65;67.13;102381.46;1684004;85;27331;-51
2024/01/09 03:24:09;;;;;;;81.92;27.73;;;;;;;-15.61;67.30;102376.93;1677199;84;25481;-50
2024/01/09 03:26:35;;;;;;;83.03;30.05;;;;;;;-15.57;67.37;102378.92;1684110;85;25446;-49
2024/01/09 03:29:04;;;;;;;69.22;26.15;;;;;;;-15.52;67.32;102375.13;1677407;84;25897;-48
2024/01/09 03:31:31;;;;;;;55.00;19.55;;;;;;;-15.48;67.25;102383.57;1684100;84;25433;-49
2024/01/09 03:33:58;;;;;;;74.82;24.37;;;;;;;-15.48;67.12;102377.08;1676927;84;28236;-49
2024/01/09 03:36:25;;;;;;;83.90;28.15;;;;;;;-15.46;66.96;102386.47;1676725;85;25445;-49
2024/01/09 03:38:53;;;;;;;81.90;27.95;;;;;;;-15.42;66.25;102383.23;1676870;85;25406;-49
2024/01/09 03:41:19;;;;;;;64.25;27.32;;;;;;;-15.45;65.75;102376.91;1684102;84;25964;-49
2024/01/09 03:43:46;;;;;;;82.12;26.50;;;;;;;-15.45;65.65;102380.80;1677063;84;25606;-48
2024/01/09 03:46:13;;;;;;;73.92;28.20;;;;;;;-15.45;65.46;102385.53;1676871;85;27938;-46
2024/01/09 03:48:39;;;;;;;80.72;30.00;;;;;;;-15.46;65.51;102386.47;1676724;85;25676;-49
2024/01/09 03:51:06;;;;;;;66.00;25.70;;;;;;;-15.49;65.16;102381.89;1676803;85;25400;-48
2024/01/09 03:53:33;;;;;;;72.65;22.77;;;;;;;-15.53;64.94;102373.45;1676780;85;25968;-48
2024/01/09 03:56:00;;;;;;;63.02;24.27;;;;;;;-15.61;64.86;102372.59;1676808;85;25487;-48
2024/01/09 03:58:26;;;;;;;66.05;26.48;;;;;;;-15.62;64.89;102377.88;1676816;85;27382;-48
2024/01/09 04:00:53;;;;;;;59.88;24.37;;;;;;;-15.70;64.95;102374.39;1676734;85;25408;-48
2024/01/09 04:03:19;;;;;;;56.18;22.55;;;;;;;-15.74;65.03;102371.61;1683957;85;25391;-48
2024/01/09 04:05:46;;;;;;;80.00;49.48;;;;;;;-15.76;65.37;102376.53;1677034;84;26002;-48
2024/01/09 04:08:14;;;;;;;59.50;22.67;;;;;;;-15.76;65.44;102376.09;1683985;84;25473;-48
2024/01/09 04:10:42;;;;;;;66.53;22.40;;;;;;;-15.75;65.70;102376.45;1652826;86;27433;-48
2024/01/09 04:13:08;;;;;;;67.50;24.47;;;;;;;-15.80;65.68;102374.13;1684783;84;25494;-48
2024/01/09 04:15:35;;;;;;;64.25;22.80;;;;;;;-15.83;65.65;102371.70;1617981;88;27294;-48
2024/01/09 04:18:02;;;;;;;72.37;26.17;;;;;;;-15.85;65.32;102370.10;1646019;85;25894;-48
2024/01/09 04:20:29;;;;;;;83.52;28.80;;;;;;;-15.85;65.35;102377.45;1618005;88;25412;-48
2024/01/09 04:22:56;;;;;;;79.47;26.07;;;;;;;-15.89;65.72;102375.92;1646782;86;27266;-48
2024/01/09 04:25:22;;;;;;;76.00;26.07;;;;;;;-15.88;65.46;102377.61;1645932;87;25607;-50
2024/01/09 04:27:49;;;;;;;77.27;26.37;;;;;;;-15.86;65.57;102377.53;1618201;88;25496;-48
2024/01/09 04:30:16;;;;;;;85.10;25.05;;;;;;;-15.86;65.28;102371.87;1646088;85;26444;-48
2024/01/09 04:32:42;;;;;;;77.30;28.42;;;;;;;-15.87;65.12;102371.48;1657878;85;25443;-48
2024/01/09 04:35:09;;;;;;;73.37;26.52;;;;;;;-15.88;65.26;102363.34;1632187;87;28001;-48
2024/01/09 04:37:36;;;;;;;74.82;25.97;;;;;;;-15.89;65.02;102369.44;1660392;86;25559;-49
2024/01/09 04:40:03;;;;;;;82.08;26.45;;;;;;;-15.91;64.86;102367.88;1632220;87;25461;-48
2024/01/09 04:42:30;;;;;;;75.78;25.95;;;;;;;-15.94;65.25;102361.08;1655494;86;25925;-48
2024/01/09 04:44:57;;;;;;;72.32;26.35;;;;;;;-15.88;65.39;102371.56;1689171;85;25470;-49
2024/01/09 04:47:24;;;;;;;73.45;27.05;;;;;;;-15.87;65.09;102371.48;1689132;85;28008;-48
2024/01/09 04:49:50;;;;;;;64.37;24.35;;;;;;;-15.83;65.29;102371.70;1689029;85;25416;-49
2024/01/09 04:52:17;;;;;;;64.12;24.43;;;;;;;-15.80;65.46;102375.43;1689119;85;25489;-49
2024/01/09 04:54:44;;;;;;;88.55;29.05;;;;;;;-15.80;65.34;102370.24;1689105;84;25561;-49
2024/01/09 04:57:10;;;;;;;80.90;28.62;;;;;;;-15.81;65.27;102373.74;1689215;85;25451;-48
2024/01/09 04:59:37;;;;;;;82.40;29.55;;;;;;;-15.78;65.41;102377.08;1689263;85;27933;-48
2024/01/09 05:02:04;;;;;;;89.72;30.10;;;;;;;-15.77;65.43;102377.00;1689155;85;25629;-48
2024/01/09 05:04:30;;;;;;;86.22;30.12;;;;;;;-15.71;65.46;102374.48;1689241;85;25411;-51
2024/01/09 05:06:57;;;;;;;74.07;29.15;;;;;;;-15.69;65.38;102368.30;1689222;84;26052;-48
2024/01/09 05:09:25;;;;;;;68.57;28.38;;;;;;;-15.68;65.30;102369.98;1689269;84;25459;-47
2024/01/09 05:11:51;;;;;;;80.83;28.98;;;;;;;-15.63;65.32;102378.78;1689232;85;27341;-48
2024/01/09 05:14:18;;;;;;;72.78;27.95;;;;;;;-15.60;65.33;102369.53;1689155;85;25436;-49
2024/01/09 05:16:44;;;;;;;75.62;28.55;;;;;;;-15.57;65.32;102364.65;1689221;85;25492;-48
2024/01/09 05:19:11;;;;;;;73.57;28.52;;;;;;;-15.50;65.11;102370.68;1689206;85;25981;-48
2024/01/09 05:21:38;;;;;;;70.50;27.55;;;;;;;-15.48;65.10;102374.02;1689278;85;25499;-49
2024/01/09 05:24:05;;;;;;;84.47;30.00;;;;;;;-15.52;65.03;102366.52;1689260;84;27292;-48
2024/01/09 05:26:31;;;;;;;88.92;29.23;;;;;;;-15.57;64.85;102370.66;1689157;85;25498;-48
2024/01/09 05:28:58;;;;;;;79.00;28.92;;;;;;;-15.58;64.81;102372.87;1689237;85;25493;-50
2024/01/09 05:31:25;;;;;;;72.37;27.30;;;;;;;-15.54;64.60;102376.98;1689012;85;25984;-49
2024/01/09 05:33:51;;;;;;;75.78;29.23;;;;;;;-15.55;64.51;102371.41;1685339;85;25465;-48
2024/01/09 05:36:22;;;;;;;72.90;28.83;;;;;;;-15.56;64.55;102369.72;1676628;85;27369;-51
2024/01/09 05:38:46;;;;;;;69.90;24.77;;;;;;;-15.57;64.34;102373.26;1676397;85;25721;-48
2024/01/09 05:41:23;;;;;;;79.87;27.67;;;;;;;-15.61;64.53;102375.20;1676661;85;25452;-51
2024/01/09 05:43:49;;;;;;;73.67;26.65;;;;;;;-15.63;64.48;102378.78;1676647;85;25919;-51
2024/01/09 05:46:17;;;;;;;76.95;28.67;;;;;;;-15.69;64.46;102377.85;1676690;85;25419;-49
2024/01/09 05:48:44;;;;;;;87.25;29.45;;;;;;;-15.72;64.47;102374.95;1676660;85;27444;-48
2024/01/09 05:51:10;;;;;;;76.72;28.27;;;;;;;-15.70;64.64;102380.88;1676590;85;25627;-51
2024/01/09 05:53:38;;;;;;;80.72;29.85;;;;;;;-15.72;64.53;102381.91;1676665;85;25405;-49
2024/01/09 05:56:08;;;;;;;73.02;27.25;;;;;;;-15.68;64.60;102385.98;1676600;85;25914;-48
2024/01/09 05:58:35;;;;;;;69.90;27.75;;;;;;;-15.61;64.57;102386.02;1676693;85;25487;-48
2024/01/09 06:01:02;;;;;;;71.75;26.70;;;;;;;-15.61;64.65;102388.17;1676649;85;27999;-48
2024/01/09 06:03:29;;;;;;;71.12;27.40;;;;;;;-15.62;64.67;102392.97;1676565;85;25481;-47
2024/01/09 06:05:56;;;;;;;75.65;26.95;;;;;;;-15.63;64.64;102393.91;1676647;85;25404;-50
2024/01/09 06:08:23;;;;;;;79.05;27.82;;;;;;;-15.69;64.61;102395.54;1676606;85;25918;-48
2024/01/09 06:10:49;;;;;;;85.47;29.10;;;;;;;-15.70;64.46;102406.83;1676664;85;25438;-47
2024/01/09 06:13:16;;;;;;;75.00;26.95;;;;;;;-15.76;64.54;102403.77;1676646;85;27392;-48
2024/01/09 06:15:42;;;;;;;83.58;25.48;;;;;;;-15.78;64.83;102403.02;1676327;85;25416;-48
2024/01/09 06:18:09;;;;;;;67.80;23.40;;;;;;;-15.74;65.07;102408.41;1675823;85;25493;-49
2024/01/09 06:20:36;;;;;;;67.55;22.95;;;;;;;-15.72;65.00;102409.97;1675814;85;26005;-48
2024/01/09 06:23:02;;;;;;;63.55;25.60;;;;;;;-15.70;64.77;102411.19;1675913;85;25582;-50
2024/01/09 06:25:29;;;;;;;74.10;25.37;;;;;;;-15.66;64.89;102420.02;1675826;85;27380;-49
2024/01/09 06:27:55;;;;;;;67.22;24.18;;;;;;;-15.74;64.40;102413.59;1675773;85;25664;-48
2024/01/09 06:30:22;;;;;;;73.70;25.62;;;;;;;-15.76;64.77;102414.14;1675848;85;25610;-48
2024/01/09 06:32:49;;;;;;;69.62;26.30;;;;;;;-15.71;64.89;102418.58;1676441;85;26048;-48
2024/01/09 06:35:16;;;;;;;72.08;27.02;;;;;;;-15.66;64.67;102408.78;1676653;85;25415;-48
2024/01/09 06:37:43;;;;;;;71.60;26.20;;;;;;;-15.61;64.59;102411.95;1676584;85;27320;-49
2024/01/09 06:40:11;;;;;;;65.80;23.52;;;;;;;-15.55;64.53;102405.61;1676536;85;25486;-48
2024/01/09 06:42:39;;;;;;;70.60;22.70;;;;;;;-15.51;64.50;102410.52;1676627;85;25415;-48
2024/01/09 06:45:06;;;;;;;79.03;24.18;;;;;;;-15.49;64.39;102419.08;1676729;85;25911;-49
2024/01/09 06:47:34;;;;;;;67.85;25.82;;;;;;;-15.51;64.29;102413.58;1676642;85;25473;-48
2024/01/09 06:50:01;;;;;;;68.37;24.65;;;;;;;-15.55;64.17;102417.28;1676609;85;28218;-48
2024/01/09 06:52:27;;;;;;;70.92;25.08;;;;;;;-15.62;64.00;102427.17;1676520;85;25488;-48
2024/01/09 06:54:54;;;;;;;79.07;26.45;;;;;;;-15.66;64.07;102426.95;1676616;85;25406;-47
2024/01/09 06:57:20;;;;;;;67.25;25.68;;;;;;;-15.70;64.15;102425.45;1676548;85;25974;-48
2024/01/09 06:59:47;;;;;;;72.47;27.48;;;;;;;-15.74;64.34;102415.71;1676623;85;25453;-48
2024/01/09 07:02:14;;;;;;;74.45;29.48;;;;;;;-15.73;64.60;102420.44;1676612;85;28044;-50
2024/01/09 07:04:41;;;;;;;81.25;45.90;;;;;;;-15.76;64.55;102424.08;1676520;85;25747;-48
2024/01/09 07:07:07;;;;;;;73.30;25.57;;;;;;;-15.81;64.75;102424.32;1676595;85;25475;-47
2024/01/09 07:09:34;;;;;;;79.40;28.67;;;;;;;-15.82;64.78;102434.78;1676575;85;26154;-49
2024/01/09 07:12:01;;;;;;;79.60;28.52;;;;;;;-15.80;64.99;102431.64;1676608;85;25400;-48
2024/01/09 07:14:28;;;;;;;49.33;21.82;;;;;;;-15.74;65.28;102437.77;1676611;85;27977;-47
2024/01/09 07:16:55;;;;;;;56.98;23.07;;;;;;;-15.69;65.51;102438.34;1676494;85;25557;-48
2024/01/09 07:19:22;;;;;;;53.35;20.35;;;;;;;-15.63;65.60;102438.45;1676572;85;25389;-46
2024/01/09 07:21:48;;;;;;;49.18;17.25;;;;;;;-15.57;65.70;102435.53;1676512;85;25976;-47
2024/01/09 07:24:15;;;;;;;49.30;20.88;;;;;;;-15.52;65.65;102432.22;1676629;85;25445;-46
2024/01/09 07:26:42;;;;;;;62.15;24.00;;;;;;;-15.43;65.72;102441.24;1676516;85;27307;-47
2024/01/09 07:29:14;;;;;;;60.73;21.15;;;;;;;-15.40;65.78;102440.25;1676524;85;25649;-47
2024/01/09 07:31:37;;;;;;;46.65;17.98;;;;;;;-15.40;65.82;102443.67;1676158;85;25485;-48
2024/01/09 07:34:04;;;;;;;51.90;22.27;;;;;;;-15.36;65.98;102445.16;1676866;85;25910;-49
2024/01/09 07:36:31;;;;;;;69.85;24.23;;;;;;;-15.32;66.17;102443.22;1677039;85;25453;-48
2024/01/09 07:38:57;;;;;;;71.75;23.95;;;;;;;-15.27;66.48;102448.98;1677077;85;27313;-47
2024/01/09 07:41:24;;;;;;;75.65;26.00;;;;;;;-15.18;66.92;102452.84;1676988;85;25411;-48
2024/01/09 07:43:50;;;;;;;55.75;21.10;;;;;;;-15.14;67.10;102448.66;1676848;85;25411;-48
2024/01/09 07:46:20;;;;;;;55.08;19.30;;;;;;;-15.11;66.96;102449.80;1677210;84;26571;-47
2024/01/09 07:48:46;;;;;;;67.53;23.18;;;;;;;-15.09;66.88;102447.11;1676837;85;25475;-47
2024/01/09 07:51:13;;;;;;;63.83;24.55;;;;;;;-15.02;67.40;102454.09;1676804;85;27319;-48
2024/01/09 07:53:40;;;;;;;70.12;27.80;;;;;;;-14.92;67.98;102456.53;1676731;85;25502;-48
2024/01/09 07:56:16;;;;;;;63.92;24.57;;;;;;;-14.79;68.75;102457.93;1676809;85;25397;-47
2024/01/09 07:58:42;;;;;;;78.67;27.13;;;;;;;-14.62;69.46;102456.94;1683739;84;26457;-47
2024/01/09 08:01:13;;;;;;;78.95;26.75;;;;;;;-14.36;70.43;102451.46;1676997;84;25557;-47
2024/01/09 08:03:40;;;;;;;82.35;28.40;;;;;;;-14.04;71.30;102453.84;1684280;84;27296;-47
2024/01/09 08:06:12;;;;;;;86.28;30.15;;;;;;;-13.66;72.10;102455.83;1676659;85;25660;-48
2024/01/09 08:08:39;;;;;;;74.20;29.87;;;;;;;-13.30;71.90;102452.59;1676840;85;25509;-47
2024/01/09 08:11:05;;;;;;;75.75;29.72;;;;;;;-12.96;72.37;102447.78;1676768;85;25875;-47
2024/01/09 08:13:32;;;;;;;78.90;31.05;;;;;;;-12.57;71.94;102456.95;1683971;85;25435;-48
2024/01/09 08:15:59;;;;;;;83.65;31.75;;;;;;;-12.21;72.24;102449.67;1677032;84;27266;-48
2024/01/09 08:18:25;;;;;;;92.42;34.18;;;;;;;-11.79;72.67;102450.66;1683896;85;25622;-48
2024/01/09 08:20:52;;;;;;;93.37;34.15;;;;;;;-11.27;72.99;102456.87;1676958;84;25443;-49
2024/01/09 08:23:19;;;;;;;92.20;34.23;;;;;;;-10.71;73.92;102444.45;1683723;85;26120;-47
2024/01/09 08:25:46;;;;;;;94.60;37.28;;;;;;;-10.05;75.72;102452.06;1676857;84;25435;-47
2024/01/09 08:28:12;;;;;;;100.70;38.60;;;;;;;-9.35;74.97;102454.77;1676807;85;27364;-47
2024/01/09 08:30:39;;;;;;;93.27;36.93;;;;;;;-8.66;76.13;102449.06;1676743;85;25425;-47
2024/01/09 08:33:06;;;;;;;87.42;35.80;;;;;;;-7.99;74.14;102457.35;1676896;85;25487;-46
2024/01/09 08:35:33;;;;;;;105.80;38.60;;;;;;;-7.28;73.11;102462.14;1684085;85;25963;-48
2024/01/09 08:37:59;;;;;;;92.15;36.63;;;;;;;-6.64;72.29;102456.73;1684112;85;25408;-47
2024/01/09 08:40:26;;;;;;;95.40;38.30;;;;;;;-6.07;71.96;102460.16;1677036;84;27404;-47
2024/01/09 08:42:53;;;;;;;84.97;35.88;;;;;;;-5.49;70.59;102460.30;1684144;85;25466;-48
2024/01/09 08:45:20;;;;;;;85.32;35.80;;;;;;;-4.79;69.83;102464.87;1677026;84;25516;-48
2024/01/09 08:47:46;;;;;;;84.52;36.40;;;;;;;-4.37;68.37;102453.59;1684059;84;25927;-48
2024/01/09 08:50:13;;;;;;;84.17;37.08;;;;;;;-3.74;67.20;102461.31;1677129;84;25481;-48
2024/01/09 08:52:40;;;;;;;85.75;37.63;;;;;;;-3.27;64.96;102464.70;1684125;84;27391;-49
2024/01/09 08:55:07;;;;;;;87.82;37.00;;;;;;;-3.17;62.79;102456.11;1677144;84;25733;-48
2024/01/09 08:57:34;;;;;;;75.67;35.17;;;;;;;-2.89;61.03;102462.42;1684236;84;25436;-48
2024/01/09 09:00:00;;;;;;;87.25;36.70;;;;;;;-2.79;60.76;102461.76;1677542;84;26585;-49
2024/01/09 09:02:27;;;;;;;89.32;37.23;;;;;;;-2.55;60.69;102461.40;1676973;85;25507;-49
2024/01/09 09:04:54;;;;;;;79.58;35.50;;;;;;;-2.33;60.00;102458.03;1683873;85;27636;-49
2024/01/09 09:07:21;;;;;;;86.47;40.48;;;;;;;-2.00;59.28;102455.26;1677284;84;25613;-49
2024/01/09 09:09:47;;;;;;;92.75;38.40;;;;;;;-1.76;59.53;102454.83;1676945;85;25427;-50
2024/01/09 09:12:14;;;;;;;81.55;39.15;;;;;;;-1.64;57.38;102458.73;1676917;85;25912;-48
2024/01/09 09:14:41;;;;;;;88.03;40.12;;;;;;;-1.77;56.00;102457.14;1676956;85;25435;-51
2024/01/09 09:17:10;;;;;;;94.05;42.98;;;;;;;-1.72;57.30;102457.45;1676899;85;27891;-49
2024/01/09 09:19:36;;;;;;;89.87;40.97;;;;;;;-1.31;56.65;102454.57;1677045;85;25499;-48
2024/01/09 09:22:03;;;;;;;97.17;39.10;;;;;;;-1.27;55.80;102455.86;1684118;84;25453;-51
2024/01/09 09:24:29;;;;;;;94.42;39.30;;;;;;;-0.91;56.76;102459.23;1652286;86;25969;-48
2024/01/09 09:26:56;;;;;;;96.55;42.38;;;;;;;-0.66;56.04;102456.37;1684332;85;25394;-50
2024/01/09 09:29:23;;;;;;;89.03;40.78;;;;;;;-0.35;55.34;102451.40;1677472;83;27425;-49
2024/01/09 09:31:49;;;;;;;94.37;41.65;;;;;;;-0.18;55.08;102451.53;1676883;85;25510;-51
2024/01/09 09:34:16;;;;;;;92.95;40.05;;;;;;;0.08;54.44;102459.02;1684250;84;25456;-50
2024/01/09 09:36:43;;;;;;;93.80;46.55;;;;;;;0.12;53.43;102456.80;1677014;84;25979;-49
2024/01/09 09:39:10;;;;;;;107.37;46.05;;;;;;;0.13;52.53;102459.28;1684179;84;25458;-50
2024/01/09 09:41:38;;;;;;;96.05;47.62;;;;;;;0.27;53.32;102458.94;1678281;84;27324;-49
2024/01/09 09:44:07;;;;;;;100.15;50.05;;;;;;;0.80;53.52;102458.70;1683954;84;25582;-49
2024/01/09 09:46:36;;;;;;;99.37;45.30;;;;;;;1.14;52.75;102450.46;1677678;84;25509;-50
2024/01/09 09:49:03;;;;;;;87.15;47.33;;;;;;;1.50;52.41;102453.52;1656173;85;32358;-50
2024/01/09 09:51:30;;;;;;;108.27;48.63;;;;;;;1.66;52.24;102454.53;1676968;84;25451;-51
2024/01/09 09:53:58;;;;;;;95.67;45.58;;;;;;;1.99;51.89;102456.57;1684060;84;27335;-50
2024/01/09 09:56:25;;;;;;;104.83;50.80;;;;;;;2.32;50.98;102454.53;1676896;84;25417;-52
2024/01/09 09:58:52;;;;;;;103.10;50.78;;;;;;;2.40;50.36;102456.19;1676893;85;25499;-51
2024/01/09 10:01:22;;;;;;;102.95;50.85;;;;;;;2.63;50.43;102454.50;1676899;85;26559;-50
2024/01/09 10:04:03;;;;;;;100.22;48.15;;;;;;;2.91;49.69;102458.86;1684412;84;25468;-51
2024/01/09 10:06:33;;;;;;;97.02;50.03;;;;;;;3.13;49.43;102460.82;1622401;87;28056;-54
2024/01/09 10:09:03;;;;;;;96.78;49.40;;;;;;;3.57;49.46;102455.33;1636309;87;25751;-51
2024/01/09 10:11:35;;;;;;;97.60;50.20;;;;;;;3.94;49.06;102451.64;1668964;86;25556;-51
2024/01/09 10:14:01;;;;;;;101.87;50.43;;;;;;;4.13;48.10;102446.41;1676299;85;26655;-53
2024/01/09 10:16:28;;;;;;;103.97;51.10;;;;;;;4.27;47.48;102447.98;1676117;85;25543;-51
2024/01/09 10:18:55;;;;;;;104.45;49.85;;;;;;;4.41;46.88;102444.22;1676100;85;27396;-51
2024/01/09 10:21:22;;;;;;;100.70;49.70;;;;;;;4.60;46.62;102438.95;1669077;86;25469;-52
2024/01/09 10:23:49;;;;;;;92.17;49.30;;;;;;;4.82;45.92;102434.88;1676249;85;25536;-51
2024/01/09 10:26:16;;;;;;;96.30;49.48;;;;;;;4.97;45.63;102429.70;1675997;85;26590;-51
2024/01/09 10:28:42;;;;;;;91.10;50.40;;;;;;;5.31;45.45;102427.55;1676168;85;25475;-52
2024/01/09 10:31:09;;;;;;;90.70;49.38;;;;;;;5.65;44.98;102432.87;1669138;86;27876;-52
2024/01/09 10:33:40;;;;;;;100.58;51.13;;;;;;;6.02;44.80;102422.68;1676102;85;25726;-52
2024/01/09 10:36:06;;;;;;;88.90;47.75;;;;;;;6.26;44.67;102420.91;1669549;85;25490;-52
2024/01/09 10:38:34;;;;;;;83.95;46.77;;;;;;;6.71;44.17;102421.83;1676229;85;26698;-53
2024/01/09 10:41:16;;;;;;;80.22;42.60;;;;;;;6.96;42.77;102426.18;1669043;86;25552;-53
2024/01/09 10:43:43;;;;;;;82.60;44.35;;;;;;;6.64;41.54;102421.09;1679231;85;27579;-51
2024/01/09 10:46:11;;;;;;;73.60;43.10;;;;;;;6.57;40.75;102414.99;1676905;84;25416;-51
2024/01/09 10:48:40;;;;;;;88.78;50.12;;;;;;;6.35;40.97;102408.28;1676978;85;25449;-54
2024/01/09 10:51:07;;;;;;;;;;;;;;;6.02;41.00;102411.41;1679412;85;25993;-54
2024/01/09 10:53:36;;;;;;;80.62;41.15;;;;;;;5.69;41.13;102408.58;1676978;85;25424;-56
2024/01/09 10:56:03;;;;;;;;;;;;;;;5.49;41.67;102409.31;1679450;85;27394;-52
2024/01/09 10:58:30;;;;;;;69.75;39.33;;;;;;;5.43;41.87;102405.14;1676879;85;25679;-53
2024/01/09 11:00:56;;;;;;;73.02;37.88;;;;;;;5.49;41.75;102404.76;1676984;85;25472;-54
2024/01/09 11:03:23;;;;;;;68.17;37.05;;;;;;;5.48;42.17;102406.32;1676923;84;25513;-51